createdAt,value
2023-02-15T00:02:00.098Z,18.20
2023-02-15T00:04:33.392Z,17.03
2023-02-15T00:07:04.451Z,13.13
2023-02-15T00:09:35.678Z,13.00
2023-02-15T00:12:07.194Z,11.70
2023-02-15T00:14:38.101Z,13.67
2023-02-15T00:17:08.973Z,14.87
2023-02-15T00:19:41.274Z,14.17
2023-02-15T00:22:12.609Z,14.27
2023-02-15T00:24:43.606Z,17.17
2023-02-15T00:27:14.810Z,16.13
2023-02-15T00:29:45.815Z,15.85
2023-02-15T00:32:16.720Z,13.60
2023-02-15T00:34:47.693Z,13.60
2023-02-15T00:37:18.753Z,13.23
2023-02-15T00:39:50.022Z,14.97
2023-02-15T00:42:20.951Z,13.57
2023-02-15T00:44:52.307Z,13.07
2023-02-15T00:47:23.313Z,14.40
2023-02-15T00:49:54.259Z,15.10
2023-02-15T00:52:25.366Z,14.70
2023-02-15T00:54:56.361Z,14.43
2023-02-15T00:57:27.202Z,14.73
2023-02-15T00:59:58.189Z,15.03
2023-02-15T01:02:29.495Z,16.07
2023-02-15T01:05:00.382Z,14.63
2023-02-15T01:07:31.579Z,13.70
2023-02-15T01:10:02.534Z,15.27
2023-02-15T01:12:33.488Z,14.10
2023-02-15T01:15:04.732Z,14.70
2023-02-15T01:17:35.849Z,13.80
2023-02-15T01:20:08.877Z,14.07
2023-02-15T01:22:39.824Z,14.33
2023-02-15T01:25:11.790Z,14.43
2023-02-15T01:27:42.811Z,14.93
2023-02-15T01:30:15.461Z,14.47
2023-02-15T01:32:46.725Z,13.47
2023-02-15T01:35:17.603Z,13.23
2023-02-15T01:37:48.684Z,12.73
2023-02-15T01:40:20.842Z,13.83
2023-02-15T01:42:55.472Z,12.87
2023-02-15T01:45:29.184Z,13.50
2023-02-15T01:48:03.794Z,14.03
2023-02-15T01:50:37.132Z,14.70
2023-02-15T01:53:11.057Z,14.70
2023-02-15T01:55:44.562Z,14.50
2023-02-15T01:58:15.890Z,14.57
2023-02-15T02:00:48.176Z,14.87
2023-02-15T02:03:19.888Z,15.00
2023-02-15T02:05:51.808Z,15.13
2023-02-15T02:08:22.723Z,14.73
2023-02-15T02:10:53.889Z,14.30
2023-02-15T02:13:25.033Z,15.13
2023-02-15T02:15:59.173Z,14.33
2023-02-15T02:18:37.703Z,14.50
2023-02-15T02:21:46.512Z,15.30
2023-02-15T02:24:23.928Z,15.90
2023-02-15T02:27:19.835Z,14.80
2023-02-15T02:30:43.005Z,16.07
2023-02-15T02:33:29.067Z,15.30
2023-02-15T02:36:06.372Z,15.07
2023-02-15T02:38:42.375Z,15.73
2023-02-15T02:41:17.730Z,14.97
2023-02-15T02:43:52.879Z,15.63
2023-02-15T02:46:27.789Z,15.63
2023-02-15T02:48:59.449Z,14.63
2023-02-15T02:51:30.672Z,14.87
2023-02-15T02:54:04.498Z,14.30
2023-02-15T02:56:38.672Z,16.73
2023-02-15T02:59:12.577Z,14.27
2023-02-15T03:01:46.856Z,15.17
2023-02-15T03:04:20.763Z,14.30
2023-02-15T03:06:54.508Z,14.83
2023-02-15T03:09:30.311Z,15.50
2023-02-15T03:12:01.190Z,14.97
2023-02-15T03:14:32.541Z,14.07
2023-02-15T03:17:05.228Z,15.23
2023-02-15T03:19:38.778Z,13.53
2023-02-15T03:22:12.672Z,14.50
2023-02-15T03:24:46.368Z,15.97
2023-02-15T03:30:00.306Z,12.37
2023-02-15T03:32:36.406Z,13.70
2023-02-15T03:35:09.692Z,12.83
2023-02-15T03:37:43.324Z,13.33
2023-02-15T03:40:34.566Z,14.00
2023-02-15T03:43:10.381Z,12.90
2023-02-15T03:45:45.863Z,10.80
2023-02-15T03:48:17.498Z,11.27
2023-02-15T03:51:06.562Z,10.83
2023-02-15T03:53:37.542Z,11.13
2023-02-15T03:56:08.295Z,11.33
2023-02-15T03:58:56.309Z,11.90
2023-02-15T04:01:48.020Z,11.07
2023-02-15T04:04:21.524Z,10.17
2023-02-15T04:06:52.566Z,11.30
2023-02-15T04:09:41.213Z,14.70
2023-02-15T04:12:12.150Z,12.97
2023-02-15T04:15:00.716Z,12.33
2023-02-15T04:17:32.228Z,12.53
2023-02-15T04:20:21.217Z,12.93
2023-02-15T04:23:10.075Z,12.37
2023-02-15T04:25:41.013Z,13.43
2023-02-15T04:28:30.383Z,12.27
2023-02-15T04:31:01.805Z,12.27
2023-02-15T04:33:32.974Z,12.47
2023-02-15T04:36:04.062Z,13.30
2023-02-15T04:38:35.079Z,12.37
2023-02-15T04:41:06.179Z,13.33
2023-02-15T04:43:37.141Z,12.80
2023-02-15T04:46:08.171Z,11.77
2023-02-15T04:48:39.233Z,12.60
2023-02-15T04:51:10.505Z,12.47
2023-02-15T04:53:41.613Z,12.60
2023-02-15T04:56:12.582Z,13.17
2023-02-15T04:58:43.491Z,12.70
2023-02-15T05:01:14.962Z,13.53
2023-02-15T05:03:45.960Z,12.67
2023-02-15T05:06:17.023Z,13.77
2023-02-15T05:08:48.172Z,14.50
2023-02-15T05:11:19.571Z,14.47
2023-02-15T05:13:50.472Z,16.33
2023-02-15T05:16:21.514Z,14.93
2023-02-15T05:18:52.490Z,16.60
2023-02-15T05:21:23.339Z,16.60
2023-02-15T05:23:54.338Z,16.70
2023-02-15T05:27:04.056Z,16.30
2023-02-15T05:32:11.738Z,15.90
2023-02-15T05:34:42.809Z,16.13
2023-02-15T05:37:13.761Z,15.97
2023-02-15T05:39:44.655Z,14.07
2023-02-15T05:42:15.499Z,16.03
2023-02-15T05:44:46.490Z,16.90
2023-02-15T05:47:17.511Z,18.17
2023-02-15T05:49:48.571Z,20.23
2023-02-15T05:52:19.438Z,22.27
2023-02-15T05:54:50.396Z,19.10
2023-02-15T05:57:21.245Z,18.50
2023-02-15T05:59:52.411Z,19.43
2023-02-15T06:02:23.562Z,17.00
2023-02-15T06:04:54.699Z,18.93
2023-02-15T06:07:25.737Z,17.80
2023-02-15T06:12:33.338Z,15.63
2023-02-15T06:15:04.559Z,19.23
2023-02-15T06:17:35.776Z,19.20
2023-02-15T06:20:09.418Z,20.03
2023-02-15T06:22:40.386Z,19.80
2023-02-15T06:25:12.371Z,20.43
2023-02-15T06:27:44.955Z,20.03
2023-02-15T06:30:17.712Z,17.47
2023-02-15T06:32:48.666Z,20.33
2023-02-15T06:35:20.097Z,20.70
2023-02-15T06:37:51.884Z,20.87
2023-02-15T06:40:23.221Z,21.87
2023-02-15T06:42:54.094Z,22.20
2023-02-15T06:45:25.145Z,18.03
2023-02-15T06:47:56.190Z,18.73
2023-02-15T06:50:27.154Z,19.83
2023-02-15T06:53:00.390Z,22.43
2023-02-15T06:55:31.597Z,19.07
2023-02-15T06:58:02.619Z,18.97
2023-02-15T07:00:34.211Z,21.30
2023-02-15T07:03:05.373Z,20.27
2023-02-15T07:05:37.726Z,20.70
2023-02-15T07:08:08.956Z,21.00
2023-02-15T07:10:40.065Z,19.77
2023-02-15T07:13:11.150Z,19.00
2023-02-15T07:15:41.980Z,18.67
2023-02-15T07:18:12.983Z,19.37
2023-02-15T07:20:43.929Z,20.37
2023-02-15T07:23:14.873Z,18.93
2023-02-15T07:25:45.853Z,19.53
2023-02-15T07:28:17.131Z,17.80
2023-02-15T07:30:48.463Z,18.37
2023-02-15T07:33:25.725Z,19.27
2023-02-15T07:35:58.993Z,19.13
2023-02-15T07:41:11.189Z,20.07
2023-02-15T07:43:44.026Z,20.03
2023-02-15T07:46:17.571Z,19.27
2023-02-15T07:48:49.221Z,18.90
2023-02-15T07:51:20.115Z,17.63
2023-02-15T07:53:52.783Z,18.13
2023-02-15T07:56:23.761Z,18.17
2023-02-15T07:58:56.313Z,18.40
2023-02-15T08:01:29.433Z,17.97
2023-02-15T08:04:01.032Z,18.73
2023-02-15T08:06:34.519Z,17.23
2023-02-15T08:09:08.029Z,17.07
2023-02-15T08:11:41.008Z,17.60
2023-02-15T08:16:53.539Z,17.27
2023-02-15T08:19:26.440Z,17.17
2023-02-15T08:21:58.812Z,16.53
2023-02-15T08:24:31.339Z,14.70
2023-02-15T08:27:05.048Z,13.87
2023-02-15T08:29:36.703Z,13.90
2023-02-15T08:32:10.432Z,13.07
2023-02-15T08:34:43.237Z,15.37
2023-02-15T08:37:14.448Z,15.30
2023-02-15T08:39:46.310Z,15.20
2023-02-15T08:42:17.341Z,13.90
2023-02-15T08:44:50.307Z,16.10
2023-02-15T08:47:20.907Z,17.43
2023-02-15T08:49:52.345Z,15.93
2023-02-15T08:52:23.155Z,16.63
2023-02-15T08:54:54.311Z,16.43
2023-02-15T08:57:25.485Z,16.10
2023-02-15T08:59:57.028Z,17.10
2023-02-15T09:02:28.202Z,17.33
2023-02-15T09:04:59.137Z,15.97
2023-02-15T09:07:30.656Z,14.93
2023-02-15T09:10:01.762Z,15.73
2023-02-15T09:12:32.738Z,15.87
2023-02-15T09:15:03.750Z,14.77
2023-02-15T09:17:34.826Z,16.83
2023-02-15T09:20:07.682Z,17.27
2023-02-15T09:22:38.603Z,16.20
2023-02-15T09:25:10.892Z,18.57
2023-02-15T09:27:42.400Z,18.17
2023-02-15T09:30:16.051Z,17.23
2023-02-15T09:32:47.323Z,17.00
2023-02-15T09:35:18.369Z,18.80
2023-02-15T09:37:49.151Z,19.67
2023-02-15T09:40:21.288Z,18.67
2023-02-15T09:43:09.220Z,21.87
2023-02-15T09:45:48.103Z,21.13
2023-02-15T09:48:40.888Z,21.23
2023-02-15T09:51:40.990Z,18.20
2023-02-15T09:57:01.772Z,20.23
2023-02-15T09:59:37.582Z,21.67
2023-02-15T10:02:17.281Z,24.33
2023-02-15T10:04:58.695Z,24.47
2023-02-15T10:07:38.640Z,22.37
2023-02-15T10:10:17.542Z,23.47
2023-02-15T10:12:57.265Z,24.13
2023-02-15T10:15:36.984Z,25.93
2023-02-15T10:18:17.522Z,27.30
2023-02-15T10:20:54.259Z,25.23
2023-02-15T10:23:35.785Z,25.43
2023-02-15T10:26:14.511Z,23.27
2023-02-15T10:28:49.369Z,24.43
2023-02-15T10:31:26.920Z,24.10
2023-02-15T10:34:09.949Z,22.93
2023-02-15T10:36:49.709Z,23.37
2023-02-15T10:39:25.661Z,22.87
2023-02-15T10:41:59.946Z,23.53
2023-02-15T10:44:39.351Z,23.17
2023-02-15T10:47:32.062Z,22.87
2023-02-15T10:50:28.423Z,23.13
2023-02-15T10:53:12.844Z,21.23
2023-02-15T10:55:51.058Z,23.13
2023-02-15T11:01:06.740Z,20.50
2023-02-15T11:03:57.294Z,22.40
2023-02-15T11:06:29.943Z,21.47
2023-02-15T11:09:04.589Z,22.33
2023-02-15T11:11:40.233Z,22.33
2023-02-15T11:14:15.161Z,23.03
2023-02-15T11:16:48.308Z,22.03
2023-02-15T11:19:22.035Z,21.40
2023-02-15T11:21:56.147Z,23.07
2023-02-15T11:24:31.507Z,21.17
2023-02-15T11:27:05.641Z,22.20
2023-02-15T11:29:39.365Z,22.37
2023-02-15T11:32:18.937Z,22.43
2023-02-15T11:34:53.105Z,23.87
2023-02-15T11:40:05.817Z,22.60
2023-02-15T11:42:37.654Z,23.87
2023-02-15T11:45:15.552Z,23.50
2023-02-15T11:47:46.557Z,22.97
2023-02-15T11:50:22.042Z,22.70
2023-02-15T11:52:53.176Z,22.90
2023-02-15T11:55:44.297Z,21.57
2023-02-15T11:58:20.156Z,20.83
2023-02-15T12:00:53.920Z,21.03
2023-02-15T12:03:29.411Z,19.90
2023-02-15T12:06:04.604Z,21.27
2023-02-15T12:08:39.815Z,21.27
2023-02-15T12:11:13.955Z,20.50
2023-02-15T12:13:59.820Z,20.50
2023-02-15T12:16:33.389Z,20.50
2023-02-15T12:19:04.878Z,21.70
2023-02-15T12:21:38.714Z,20.37
2023-02-15T12:24:16.910Z,19.90
2023-02-15T12:26:50.032Z,18.47
2023-02-15T12:32:01.767Z,18.77
2023-02-15T12:34:36.165Z,18.33
2023-02-15T12:37:13.023Z,19.03
2023-02-15T12:39:51.207Z,18.00
2023-02-15T12:42:23.110Z,19.20
2023-02-15T12:45:03.511Z,18.80
2023-02-15T12:47:36.760Z,19.33
2023-02-15T12:50:21.830Z,18.27
2023-02-15T12:52:53.880Z,17.93
2023-02-15T12:55:28.401Z,18.60
2023-02-15T12:58:19.357Z,17.07
2023-02-15T13:00:50.478Z,16.53
2023-02-15T13:03:25.078Z,16.97
2023-02-15T13:05:58.632Z,17.60
2023-02-15T13:08:33.230Z,16.50
2023-02-15T13:11:07.908Z,16.63
2023-02-15T13:13:41.313Z,14.87
2023-02-15T13:16:14.947Z,16.20
2023-02-15T13:18:48.394Z,15.73
2023-02-15T13:21:22.790Z,14.77
2023-02-15T13:23:58.331Z,14.93
2023-02-15T13:26:32.347Z,12.17
2023-02-15T13:29:06.903Z,12.63
2023-02-15T13:31:38.523Z,13.73
2023-02-15T13:34:14.703Z,13.13
2023-02-15T13:36:51.645Z,11.40
2023-02-15T13:39:28.271Z,10.97
2023-02-15T13:42:05.105Z,10.37
2023-02-15T13:44:51.001Z,11.13
2023-02-15T13:47:26.121Z,11.47
2023-02-15T13:50:07.950Z,10.87
2023-02-15T13:52:42.867Z,12.43
2023-02-15T13:55:31.319Z,10.63
2023-02-15T13:58:19.347Z,11.17
2023-02-15T14:00:54.683Z,10.23
2023-02-15T14:04:16.889Z,10.73
2023-02-15T14:09:37.135Z,10.70
2023-02-15T14:12:34.526Z,9.70
2023-02-15T14:15:23.085Z,11.10
2023-02-15T14:18:00.443Z,10.40
2023-02-15T14:20:37.345Z,9.60
2023-02-15T14:23:11.903Z,10.25
2023-02-15T14:25:46.002Z,9.87
2023-02-15T14:28:19.676Z,9.03
2023-02-15T14:30:53.877Z,9.30
2023-02-15T14:33:36.326Z,8.90
2023-02-15T14:36:27.364Z,9.90
2023-02-15T14:39:09.265Z,9.30
2023-02-15T14:41:43.334Z,9.23
2023-02-15T14:44:17.269Z,9.10
2023-02-15T14:46:53.322Z,9.57
2023-02-15T14:49:26.955Z,9.40
2023-02-15T14:52:06.384Z,9.37
2023-02-15T14:57:40.292Z,10.40
2023-02-15T15:00:33.816Z,9.80
2023-02-15T15:03:06.973Z,9.77
2023-02-15T15:05:41.197Z,8.30
2023-02-15T15:08:24.556Z,8.90
2023-02-15T15:10:55.611Z,8.23
2023-02-15T15:14:01.906Z,7.87
2023-02-15T15:16:54.302Z,7.80
2023-02-15T15:20:12.172Z,7.57
2023-02-15T15:22:44.973Z,7.70
2023-02-15T15:25:35.444Z,8.37
2023-02-15T15:28:07.855Z,7.77
2023-02-15T15:30:55.772Z,7.70
2023-02-15T15:37:01.576Z,7.50
2023-02-15T15:39:54.010Z,6.70
2023-02-15T15:42:32.837Z,6.67
2023-02-15T15:46:02.330Z,6.13
2023-02-15T15:51:18.352Z,5.23
2023-02-15T15:53:53.698Z,5.00
2023-02-15T15:56:27.111Z,5.10
2023-02-15T16:01:42.659Z,5.73
2023-02-15T16:04:16.533Z,6.03
2023-02-15T16:06:47.787Z,5.50
2023-02-15T16:09:22.188Z,5.43
2023-02-15T16:11:55.614Z,5.73
2023-02-15T16:14:31.433Z,5.47
2023-02-15T16:17:04.720Z,5.30
2023-02-15T16:19:38.587Z,5.27
2023-02-15T16:22:12.972Z,5.40
2023-02-15T16:25:08.768Z,4.93
2023-02-15T16:27:42.803Z,5.50
2023-02-15T16:30:29.208Z,5.93
2023-02-15T16:33:09.395Z,5.80
2023-02-15T16:35:43.449Z,5.63
2023-02-15T16:38:14.566Z,5.67
2023-02-15T16:40:54.803Z,5.40
2023-02-15T16:43:28.767Z,5.30
2023-02-15T16:46:03.475Z,5.30
2023-02-15T16:48:37.030Z,5.23
2023-02-15T16:51:08.453Z,5.57
2023-02-15T16:53:40.449Z,6.43
2023-02-15T16:56:11.134Z,6.53
2023-02-15T16:58:44.782Z,6.37
2023-02-15T17:04:03.002Z,6.83
2023-02-15T17:06:34.194Z,6.67
2023-02-15T17:09:11.650Z,6.73
2023-02-15T17:11:44.302Z,6.30
2023-02-15T17:14:21.262Z,5.57
2023-02-15T17:16:55.219Z,6.37
2023-02-15T17:19:28.821Z,5.80
2023-02-15T17:22:02.673Z,6.23
2023-02-15T17:24:39.674Z,6.00
2023-02-15T17:27:16.348Z,5.63
2023-02-15T17:29:52.943Z,6.37
2023-02-15T17:32:26.574Z,7.00
2023-02-15T17:35:10.115Z,5.87
2023-02-15T17:37:50.427Z,5.77
2023-02-15T17:40:40.140Z,6.10
2023-02-15T17:43:11.234Z,5.97
2023-02-15T17:48:24.431Z,5.27
2023-02-15T17:50:55.485Z,5.97
2023-02-15T17:53:27.440Z,6.53
2023-02-15T17:55:59.673Z,6.57
2023-02-15T17:58:30.700Z,6.27
2023-02-15T18:01:22.092Z,6.70
2023-02-15T18:04:12.233Z,5.73
2023-02-15T18:07:02.916Z,6.43
2023-02-15T18:09:51.634Z,5.97
2023-02-15T18:12:25.396Z,6.30
2023-02-15T18:14:57.534Z,6.20
2023-02-15T18:17:31.238Z,6.43
2023-02-15T18:20:04.137Z,6.33
2023-02-15T18:22:35.526Z,5.73
2023-02-15T18:25:06.921Z,6.00
2023-02-15T18:27:38.155Z,6.20
2023-02-15T18:30:13.468Z,6.20
2023-02-15T18:32:46.063Z,7.37
2023-02-15T18:37:57.765Z,18.10
2023-02-15T18:40:30.240Z,10.17
2023-02-15T18:43:01.514Z,10.77
2023-02-15T18:45:33.302Z,7.53
2023-02-15T18:48:05.012Z,6.93
2023-02-15T18:50:38.421Z,8.03
2023-02-15T18:53:14.083Z,13.00
2023-02-15T18:55:47.492Z,11.23
2023-02-15T19:01:01.322Z,10.37
2023-02-15T19:03:32.570Z,10.03
2023-02-15T19:06:05.273Z,7.03
2023-02-15T19:08:36.138Z,6.87
2023-02-15T19:11:07.607Z,7.37
2023-02-15T19:13:38.547Z,8.33
2023-02-15T19:16:11.470Z,6.60
2023-02-15T19:18:44.570Z,7.60
2023-02-15T19:21:18.662Z,7.90
2023-02-15T19:23:53.392Z,7.37
2023-02-15T19:26:30.784Z,5.93
2023-02-15T19:28:57.938Z,6.73
2023-02-15T19:31:29.776Z,8.30
2023-02-15T19:34:01.674Z,7.43
2023-02-15T19:36:33.134Z,6.33
2023-02-15T19:39:04.329Z,6.20
2023-02-15T19:41:36.688Z,6.87
2023-02-15T19:44:10.027Z,8.37
2023-02-15T19:46:42.384Z,7.47
2023-02-15T19:49:14.355Z,6.80
2023-02-15T19:51:45.682Z,6.33
2023-02-15T19:54:30.969Z,6.10
2023-02-15T19:57:03.226Z,7.10
2023-02-15T19:59:35.207Z,6.37
2023-02-15T20:02:07.392Z,7.10
2023-02-15T20:04:38.314Z,7.23
2023-02-15T20:07:12.997Z,7.10
2023-02-15T20:09:44.752Z,7.20
2023-02-15T20:15:01.835Z,6.87
2023-02-15T20:17:33.194Z,8.17
2023-02-15T20:20:04.334Z,8.87
2023-02-15T20:22:35.474Z,8.10
2023-02-15T20:25:07.503Z,8.30
2023-02-15T20:27:40.069Z,9.57
2023-02-15T20:30:18.998Z,8.17
2023-02-15T20:32:50.579Z,10.23
2023-02-15T20:35:23.584Z,8.47
2023-02-15T20:37:56.632Z,10.13
2023-02-15T20:40:30.077Z,18.27
2023-02-15T20:43:01.563Z,20.67
2023-02-15T20:45:33.795Z,12.20
2023-02-15T20:48:05.383Z,11.43
2023-02-15T20:50:37.583Z,10.47
2023-02-15T20:53:11.567Z,10.00
2023-02-15T20:55:42.496Z,10.17
2023-02-15T20:58:22.063Z,10.03
2023-02-15T21:00:53.803Z,10.13
2023-02-15T21:03:28.913Z,14.93
2023-02-15T21:06:00.015Z,11.90
2023-02-15T21:08:31.349Z,13.10
2023-02-15T21:11:02.642Z,10.60
2023-02-15T21:13:35.892Z,13.13
2023-02-15T21:16:07.833Z,14.03
2023-02-15T21:18:40.638Z,12.67
2023-02-15T21:21:35.357Z,15.17
2023-02-15T21:24:07.194Z,13.30
2023-02-15T21:26:42.048Z,13.07
2023-02-15T21:29:17.406Z,12.37
2023-02-15T21:31:49.529Z,12.13
2023-02-15T21:34:20.605Z,11.33
2023-02-15T21:36:51.907Z,10.83
2023-02-15T21:39:25.102Z,9.33
2023-02-15T21:42:15.036Z,9.47
2023-02-15T21:45:03.581Z,8.83
2023-02-15T21:47:53.155Z,8.40
2023-02-15T21:50:43.644Z,9.07
2023-02-15T21:53:17.352Z,9.67
2023-02-15T21:55:48.409Z,9.40
2023-02-15T21:58:22.739Z,10.57
2023-02-15T22:00:55.578Z,9.50
2023-02-15T22:03:27.767Z,11.57
2023-02-15T22:05:58.715Z,12.77
2023-02-15T22:08:29.773Z,15.77
2023-02-15T22:11:00.780Z,13.40
2023-02-15T22:13:34.076Z,10.07
2023-02-15T22:16:06.181Z,10.63
2023-02-15T22:18:37.819Z,11.73
2023-02-15T22:21:10.437Z,15.50
2023-02-15T22:23:41.658Z,9.87
2023-02-15T22:26:17.371Z,9.00
2023-02-15T22:28:48.382Z,8.33
2023-02-15T22:31:22.375Z,8.13
2023-02-15T22:33:55.017Z,9.50
2023-02-15T22:36:28.174Z,9.60
2023-02-15T22:38:59.401Z,10.93
2023-02-15T22:41:32.739Z,9.50
2023-02-15T22:44:03.927Z,8.83
2023-02-15T22:46:38.492Z,9.17
2023-02-15T22:49:12.502Z,8.73
2023-02-15T22:51:43.468Z,9.07
2023-02-15T22:54:14.551Z,8.70
2023-02-15T22:56:48.273Z,8.50
2023-02-15T22:59:23.925Z,8.43
2023-02-15T23:01:55.219Z,8.97
2023-02-15T23:04:28.634Z,9.60
2023-02-15T23:07:01.094Z,11.60
2023-02-15T23:09:32.041Z,10.57
2023-02-15T23:12:02.809Z,11.10
2023-02-15T23:14:36.658Z,12.17
2023-02-15T23:17:08.501Z,11.87
2023-02-15T23:19:39.539Z,11.87
2023-02-15T23:22:14.447Z,12.63
2023-02-15T23:24:47.122Z,12.23
2023-02-15T23:27:37.954Z,12.77
2023-02-15T23:30:14.199Z,12.67
2023-02-15T23:32:45.328Z,12.93
2023-02-15T23:35:18.658Z,11.80
2023-02-15T23:37:49.602Z,12.93
2023-02-15T23:40:40.403Z,12.83
2023-02-15T23:43:15.953Z,13.57
2023-02-15T23:45:47.018Z,14.07
2023-02-15T23:48:32.790Z,15.27
2023-02-15T23:51:04.733Z,13.50
2023-02-15T23:53:36.186Z,13.83
2023-02-15T23:56:10.230Z,13.73
2023-02-15T23:58:43.299Z,13.17
